sensor_id;sensor_type;location;lat;lon;timestamp;temperature;humidity
20590;DHT22;10453;50.810;12.540;2023-04-01T00:00:36;9.10;99.90
20590;DHT22;10453;50.810;12.540;2023-04-01T00:04:53;9.10;99.90
20590;DHT22;10453;50.810;12.540;2023-04-01T00:09:10;9.00;99.90
20590;DHT22;10453;50.810;12.540;2023-04-01T00:13:28;9.00;99.90
20590;DHT22;10453;50.810;12.540;2023-04-01T00:17:45;9.00;99.90
20590;DHT22;10453;50.810;12.540;2023-04-01T00:22:03;9.10;99.90
20590;DHT22;10453;50.810;12.540;2023-04-01T00:26:21;9.10;99.90
20590;DHT22;10453;50.810;12.540;2023-04-01T00:30:39;9.10;99.90
20590;DHT22;10453;50.810;12.540;2023-04-01T00:34:56;9.10;99.90
20590;DHT22;10453;50.810;12.540;2023-04-01T00:39:16;9.00;99.90
20590;DHT22;10453;50.810;12.540;2023-04-01T00:43:34;9.00;99.90
20590;DHT22;10453;50.810;12.540;2023-04-01T00:47:52;9.10;99.90
20590;DHT22;10453;50.810;12.540;2023-04-01T00:52:14;9.10;99.90
20590;DHT22;10453;50.810;12.540;2023-04-01T00:56:35;9.00;99.90
20590;DHT22;10453;50.810;12.540;2023-04-01T01:00:55;9.00;99.90
20590;DHT22;10453;50.810;12.540;2023-04-01T01:05:14;9.10;99.90
20590;DHT22;10453;50.810;12.540;2023-04-01T01:18:58;9.10;99.90
20590;DHT22;10453;50.810;12.540;2023-04-01T01:33:06;9.00;99.90
20590;DHT22;10453;50.810;12.540;2023-04-01T01:37:27;9.00;99.90
20590;DHT22;10453;50.810;12.540;2023-04-01T01:41:48;9.10;99.90
20590;DHT22;10453;50.810;12.540;2023-04-01T01:46:11;9.00;99.90
20590;DHT22;10453;50.810;12.540;2023-04-01T01:50:29;9.00;99.90
20590;DHT22;10453;50.810;12.540;2023-04-01T01:54:54;9.10;99.90
20590;DHT22;10453;50.810;12.540;2023-04-01T01:59:11;9.00;99.90
20590;DHT22;10453;50.810;12.540;2023-04-01T02:03:34;9.00;99.90
20590;DHT22;10453;50.810;12.540;2023-04-01T02:12:19;9.00;99.90
20590;DHT22;10453;50.810;12.540;2023-04-01T02:20:59;9.10;99.90
20590;DHT22;10453;50.810;12.540;2023-04-01T02:25:23;9.10;99.90
20590;DHT22;10453;50.810;12.540;2023-04-01T02:29:41;9.20;99.90
20590;DHT22;10453;50.810;12.540;2023-04-01T02:33:58;9.10;99.90
20590;DHT22;10453;50.810;12.540;2023-04-01T02:38:16;9.10;99.90
20590;DHT22;10453;50.810;12.540;2023-04-01T02:42:34;9.10;99.90
20590;DHT22;10453;50.810;12.540;2023-04-01T02:46:51;9.20;99.90
20590;DHT22;10453;50.810;12.540;2023-04-01T02:51:10;9.20;99.90
20590;DHT22;10453;50.810;12.540;2023-04-01T02:55:27;9.10;99.90
20590;DHT22;10453;50.810;12.540;2023-04-01T02:59:44;9.10;99.90
20590;DHT22;10453;50.810;12.540;2023-04-01T03:04:02;9.10;99.90
20590;DHT22;10453;50.810;12.540;2023-04-01T03:08:19;9.00;99.90
20590;DHT22;10453;50.810;12.540;2023-04-01T03:12:37;9.00;99.90
20590;DHT22;10453;50.810;12.540;2023-04-01T03:16:54;9.00;99.90
20590;DHT22;10453;50.810;12.540;2023-04-01T03:21:32;9.00;99.90
20590;DHT22;10453;50.810;12.540;2023-04-01T03:25:49;9.00;99.90
20590;DHT22;10453;50.810;12.540;2023-04-01T03:30:08;9.00;99.90
20590;DHT22;10453;50.810;12.540;2023-04-01T03:34:26;8.90;99.90
20590;DHT22;10453;50.810;12.540;2023-04-01T03:38:44;8.90;99.90
20590;DHT22;10453;50.810;12.540;2023-04-01T03:43:02;8.90;99.90
20590;DHT22;10453;50.810;12.540;2023-04-01T03:47:20;8.80;99.90
20590;DHT22;10453;50.810;12.540;2023-04-01T03:51:42;8.70;99.90
20590;DHT22;10453;50.810;12.540;2023-04-01T03:56:04;8.80;99.90
20590;DHT22;10453;50.810;12.540;2023-04-01T04:00:22;8.80;99.90
20590;DHT22;10453;50.810;12.540;2023-04-01T04:04:39;8.80;99.90
20590;DHT22;10453;50.810;12.540;2023-04-01T04:08:58;8.80;99.90
20590;DHT22;10453;50.810;12.540;2023-04-01T04:13:15;8.80;99.90
20590;DHT22;10453;50.810;12.540;2023-04-01T04:17:33;8.80;99.90
20590;DHT22;10453;50.810;12.540;2023-04-01T04:21:50;8.80;99.90
20590;DHT22;10453;50.810;12.540;2023-04-01T04:26:10;8.80;99.90
20590;DHT22;10453;50.810;12.540;2023-04-01T04:30:28;8.80;99.90
20590;DHT22;10453;50.810;12.540;2023-04-01T04:34:45;8.80;99.90
20590;DHT22;10453;50.810;12.540;2023-04-01T04:39:03;8.80;99.90
20590;DHT22;10453;50.810;12.540;2023-04-01T04:43:20;8.80;99.90
20590;DHT22;10453;50.810;12.540;2023-04-01T04:47:38;8.80;99.90
20590;DHT22;10453;50.810;12.540;2023-04-01T04:51:55;8.80;99.90
20590;DHT22;10453;50.810;12.540;2023-04-01T04:56:12;8.80;99.90
20590;DHT22;10453;50.810;12.540;2023-04-01T05:00:30;8.90;99.90
20590;DHT22;10453;50.810;12.540;2023-04-01T05:04:47;8.90;99.90
20590;DHT22;10453;50.810;12.540;2023-04-01T05:09:04;8.90;99.90
20590;DHT22;10453;50.810;12.540;2023-04-01T05:13:22;9.00;99.90
20590;DHT22;10453;50.810;12.540;2023-04-01T05:17:39;9.00;99.90
20590;DHT22;10453;50.810;12.540;2023-04-01T05:21:57;9.00;99.90
20590;DHT22;10453;50.810;12.540;2023-04-01T05:26:14;9.00;99.90
20590;DHT22;10453;50.810;12.540;2023-04-01T05:30:31;9.00;99.90
20590;DHT22;10453;50.810;12.540;2023-04-01T05:34:53;9.00;99.90
20590;DHT22;10453;50.810;12.540;2023-04-01T05:39:10;9.00;99.90
20590;DHT22;10453;50.810;12.540;2023-04-01T05:43:28;9.10;99.90
20590;DHT22;10453;50.810;12.540;2023-04-01T05:47:46;9.10;99.90
20590;DHT22;10453;50.810;12.540;2023-04-01T05:52:04;9.20;99.90
20590;DHT22;10453;50.810;12.540;2023-04-01T05:56:21;9.20;99.90
20590;DHT22;10453;50.810;12.540;2023-04-01T06:00:38;9.30;99.90
20590;DHT22;10453;50.810;12.540;2023-04-01T06:05:11;9.40;99.90
20590;DHT22;10453;50.810;12.540;2023-04-01T06:09:29;9.50;99.90
20590;DHT22;10453;50.810;12.540;2023-04-01T06:14:16;9.50;99.90
20590;DHT22;10453;50.810;12.540;2023-04-01T06:18:48;9.50;99.90
20590;DHT22;10453;50.810;12.540;2023-04-01T06:23:28;9.60;99.90
20590;DHT22;10453;50.810;12.540;2023-04-01T06:46:48;9.90;99.90
20590;DHT22;10453;50.810;12.540;2023-04-01T06:51:21;9.90;99.90
20590;DHT22;10453;50.810;12.540;2023-04-01T06:55:44;9.90;99.90
20590;DHT22;10453;50.810;12.540;2023-04-01T07:04:54;10.00;99.90
20590;DHT22;10453;50.810;12.540;2023-04-01T07:09:22;9.90;99.90
20590;DHT22;10453;50.810;12.540;2023-04-01T07:13:46;9.80;99.90
20590;DHT22;10453;50.810;12.540;2023-04-01T07:18:29;9.90;99.90
20590;DHT22;10453;50.810;12.540;2023-04-01T07:22:50;10.00;99.90
20590;DHT22;10453;50.810;12.540;2023-04-01T07:27:10;10.20;99.90
20590;DHT22;10453;50.810;12.540;2023-04-01T07:31:42;10.40;99.90
20590;DHT22;10453;50.810;12.540;2023-04-01T07:36:16;10.60;99.90
20590;DHT22;10453;50.810;12.540;2023-04-01T07:41:06;10.50;99.90
20590;DHT22;10453;50.810;12.540;2023-04-01T07:45:58;10.50;99.90
20590;DHT22;10453;50.810;12.540;2023-04-01T07:50:30;10.60;99.90
20590;DHT22;10453;50.810;12.540;2023-04-01T07:55:00;10.70;99.90
20590;DHT22;10453;50.810;12.540;2023-04-01T07:59:30;10.50;99.90
20590;DHT22;10453;50.810;12.540;2023-04-01T08:17:55;11.10;99.90
20590;DHT22;10453;50.810;12.540;2023-04-01T08:22:21;11.30;99.90
20590;DHT22;10453;50.810;12.540;2023-04-01T08:26:47;11.40;99.90
20590;DHT22;10453;50.810;12.540;2023-04-01T08:31:33;11.50;99.90
20590;DHT22;10453;50.810;12.540;2023-04-01T08:36:08;11.90;99.90
20590;DHT22;10453;50.810;12.540;2023-04-01T08:40:39;12.20;99.90
20590;DHT22;10453;50.810;12.540;2023-04-01T08:45:35;12.30;99.90
20590;DHT22;10453;50.810;12.540;2023-04-01T09:03:37;12.80;99.90
20590;DHT22;10453;50.810;12.540;2023-04-01T09:17:28;12.40;99.90
20590;DHT22;10453;50.810;12.540;2023-04-01T09:35:47;12.30;99.90
20590;DHT22;10453;50.810;12.540;2023-04-01T10:03:20;12.50;99.90
20590;DHT22;10453;50.810;12.540;2023-04-01T10:22:42;13.20;99.90
20590;DHT22;10453;50.810;12.540;2023-04-01T10:31:50;13.30;99.90
20590;DHT22;10453;50.810;12.540;2023-04-01T10:36:35;12.60;99.90
20590;DHT22;10453;50.810;12.540;2023-04-01T10:41:16;12.70;99.90
20590;DHT22;10453;50.810;12.540;2023-04-01T10:46:00;12.70;99.90
20590;DHT22;10453;50.810;12.540;2023-04-01T10:50:37;12.50;99.90
20590;DHT22;10453;50.810;12.540;2023-04-01T11:24:16;12.00;99.90
20590;DHT22;10453;50.810;12.540;2023-04-01T11:33:18;12.10;99.90
20590;DHT22;10453;50.810;12.540;2023-04-01T11:38:02;12.00;99.90
20590;DHT22;10453;50.810;12.540;2023-04-01T11:52:06;11.90;99.90
20590;DHT22;10453;50.810;12.540;2023-04-01T11:56:44;11.80;99.90
20590;DHT22;10453;50.810;12.540;2023-04-01T12:06:10;11.60;99.90
20590;DHT22;10453;50.810;12.540;2023-04-01T12:29:12;10.30;99.90
20590;DHT22;10453;50.810;12.540;2023-04-01T12:42:44;11.20;99.90
20590;DHT22;10453;50.810;12.540;2023-04-01T12:56:17;12.10;99.90
20590;DHT22;10453;50.810;12.540;2023-04-01T13:00:52;11.90;99.90
20590;DHT22;10453;50.810;12.540;2023-04-01T13:10:38;11.60;99.90
20590;DHT22;10453;50.810;12.540;2023-04-01T13:19:45;11.30;99.90
20590;DHT22;10453;50.810;12.540;2023-04-01T13:24:50;11.00;99.90
20590;DHT22;10453;50.810;12.540;2023-04-01T13:29:22;11.00;99.90
20590;DHT22;10453;50.810;12.540;2023-04-01T13:33:50;11.00;99.90
20590;DHT22;10453;50.810;12.540;2023-04-01T13:43:16;10.70;99.90
20590;DHT22;10453;50.810;12.540;2023-04-01T13:48:16;10.80;99.90
20590;DHT22;10453;50.810;12.540;2023-04-01T13:52:47;10.80;99.90
20590;DHT22;10453;50.810;12.540;2023-04-01T14:16:14;11.20;99.90
20590;DHT22;10453;50.810;12.540;2023-04-01T14:21:08;11.40;99.90
20590;DHT22;10453;50.810;12.540;2023-04-01T14:39:43;13.10;99.90
20590;DHT22;10453;50.810;12.540;2023-04-01T14:44:24;12.60;99.90
20590;DHT22;10453;50.810;12.540;2023-04-01T14:48:56;12.20;99.90
20590;DHT22;10453;50.810;12.540;2023-04-01T14:53:27;12.00;99.90
20590;DHT22;10453;50.810;12.540;2023-04-01T14:57:59;11.80;99.90
20590;DHT22;10453;50.810;12.540;2023-04-01T15:11:32;12.00;99.90
20590;DHT22;10453;50.810;12.540;2023-04-01T15:20:30;11.70;99.90
20590;DHT22;10453;50.810;12.540;2023-04-01T15:39:09;12.50;99.90
20590;DHT22;10453;50.810;12.540;2023-04-01T15:43:37;12.30;99.90
20590;DHT22;10453;50.810;12.540;2023-04-01T16:12:13;11.20;99.90
20590;DHT22;10453;50.810;12.540;2023-04-01T16:21:51;10.90;99.90
20590;DHT22;10453;50.810;12.540;2023-04-01T16:30:46;10.80;99.90
20590;DHT22;10453;50.810;12.540;2023-04-01T16:35:20;10.90;99.90
20590;DHT22;10453;50.810;12.540;2023-04-01T16:40:01;10.90;99.90
20590;DHT22;10453;50.810;12.540;2023-04-01T16:44:26;10.90;99.90
20590;DHT22;10453;50.810;12.540;2023-04-01T16:58:01;10.70;99.90
20590;DHT22;10453;50.810;12.540;2023-04-01T17:02:24;10.80;99.90
20590;DHT22;10453;50.810;12.540;2023-04-01T17:06:52;10.70;99.90
20590;DHT22;10453;50.810;12.540;2023-04-01T17:11:16;10.60;99.90
20590;DHT22;10453;50.810;12.540;2023-04-01T17:20:12;10.50;99.90
20590;DHT22;10453;50.810;12.540;2023-04-01T17:29:20;10.40;99.90
20590;DHT22;10453;50.810;12.540;2023-04-01T17:34:13;10.40;99.90
20590;DHT22;10453;50.810;12.540;2023-04-01T17:38:51;10.30;99.90
20590;DHT22;10453;50.810;12.540;2023-04-01T17:43:37;10.30;99.90
20590;DHT22;10453;50.810;12.540;2023-04-01T18:06:56;10.00;99.90
20590;DHT22;10453;50.810;12.540;2023-04-01T18:21:17;9.80;99.90
20590;DHT22;10453;50.810;12.540;2023-04-01T18:25:44;9.80;99.90
20590;DHT22;10453;50.810;12.540;2023-04-01T18:30:37;9.80;99.90
20590;DHT22;10453;50.810;12.540;2023-04-01T18:35:20;9.70;99.90
20590;DHT22;10453;50.810;12.540;2023-04-01T18:39:41;9.70;99.90
20590;DHT22;10453;50.810;12.540;2023-04-01T18:53:28;9.70;99.90
20590;DHT22;10453;50.810;12.540;2023-04-01T18:57:53;9.70;99.90
20590;DHT22;10453;50.810;12.540;2023-04-01T19:02:45;9.70;99.90
20590;DHT22;10453;50.810;12.540;2023-04-01T19:21:27;9.60;99.90
20590;DHT22;10453;50.810;12.540;2023-04-01T19:25:51;9.60;99.90
20590;DHT22;10453;50.810;12.540;2023-04-01T19:39:24;9.60;99.90
20590;DHT22;10453;50.810;12.540;2023-04-01T19:53:51;9.50;99.90
20590;DHT22;10453;50.810;12.540;2023-04-01T20:07:37;9.50;99.90
20590;DHT22;10453;50.810;12.540;2023-04-01T20:12:05;9.50;99.90
20590;DHT22;10453;50.810;12.540;2023-04-01T20:16:49;9.50;99.90
20590;DHT22;10453;50.810;12.540;2023-04-01T20:21:27;9.40;99.90
20590;DHT22;10453;50.810;12.540;2023-04-01T20:26:02;9.50;99.90
20590;DHT22;10453;50.810;12.540;2023-04-01T20:39:31;9.50;99.90
20590;DHT22;10453;50.810;12.540;2023-04-01T20:44:10;9.50;99.90
20590;DHT22;10453;50.810;12.540;2023-04-01T20:53:15;9.50;99.90
20590;DHT22;10453;50.810;12.540;2023-04-01T20:57:42;9.50;99.90
20590;DHT22;10453;50.810;12.540;2023-04-01T21:02:15;9.30;99.90
20590;DHT22;10453;50.810;12.540;2023-04-01T21:11:20;9.20;99.90
20590;DHT22;10453;50.810;12.540;2023-04-01T21:16:11;9.20;99.90
20590;DHT22;10453;50.810;12.540;2023-04-01T22:02:20;9.10;99.90
20590;DHT22;10453;50.810;12.540;2023-04-01T22:07:06;9.00;99.90
20590;DHT22;10453;50.810;12.540;2023-04-01T22:11:38;9.10;99.90
20590;DHT22;10453;50.810;12.540;2023-04-01T22:16:10;9.10;99.90
20590;DHT22;10453;50.810;12.540;2023-04-01T22:20:59;9.00;99.90
20590;DHT22;10453;50.810;12.540;2023-04-01T22:25:49;9.10;99.90
20590;DHT22;10453;50.810;12.540;2023-04-01T22:30:18;9.10;99.90
20590;DHT22;10453;50.810;12.540;2023-04-01T22:34:57;9.00;99.90
20590;DHT22;10453;50.810;12.540;2023-04-01T22:45:03;9.00;99.90
20590;DHT22;10453;50.810;12.540;2023-04-01T22:49:00;9.00;99.90
20590;DHT22;10453;50.810;12.540;2023-04-01T22:58:05;8.90;99.90
20590;DHT22;10453;50.810;12.540;2023-04-01T23:02:35;8.90;99.90
20590;DHT22;10453;50.810;12.540;2023-04-01T23:06:59;8.90;99.90
20590;DHT22;10453;50.810;12.540;2023-04-01T23:15:47;8.80;99.90
20590;DHT22;10453;50.810;12.540;2023-04-01T23:20:32;8.80;99.90
20590;DHT22;10453;50.810;12.540;2023-04-01T23:29:35;8.70;99.90
20590;DHT22;10453;50.810;12.540;2023-04-01T23:33:58;8.60;99.90
20590;DHT22;10453;50.810;12.540;2023-04-01T23:38:19;8.50;99.90
20590;DHT22;10453;50.810;12.540;2023-04-01T23:42:41;8.50;99.90
20590;DHT22;10453;50.810;12.540;2023-04-01T23:46:59;8.40;99.90
20590;DHT22;10453;50.810;12.540;2023-04-01T23:55:41;8.20;99.90
